Time;durP1;ratioP1;P1;durP2;ratioP2;P2;SDS_P1;SDS_P2;PMS_P1;PMS_P2;Temp;Humidity;BMP_temperature;BMP_pressure;BME280_temperature;BME280_humidity;BME280_pressure;Samples;Min_cycle;Max_cycle;Signal;HPM_P1;HPM_P2
2021/12/31 00:01:30;;;;;;;1.83;0.90;;;;;;;;;;5138984;27;20537;-73
2021/12/31 00:04:01;;;;;;;14.87;10.30;;;;;;;;;;5139556;27;20461;-74
2021/12/31 00:06:32;;;;;;;1.73;1.10;;;;;;;;;;5127528;27;20478;-73
2021/12/31 00:09:02;;;;;;;1.93;1.20;;;;;;;;;;5117896;27;20470;-73
2021/12/31 00:11:38;;;;;;;1.67;0.80;;;;;;;;;;5118448;28;20447;-74
2021/12/31 00:14:07;;;;;;;2.40;1.43;;;;;;;;;;5118299;27;20493;-74
2021/12/31 00:16:36;;;;;;;2.50;1.20;;;;;;;;;;5119739;28;20931;-72
2021/12/31 00:19:08;;;;;;;1.87;1.17;;;;;;;;;;5118089;28;20486;-73
2021/12/31 00:21:50;;;;;;;3.10;1.43;;;;;;;;;;5119388;27;20546;-72
2021/12/31 00:24:27;;;;;;;5.20;1.87;;;;;;;;;;5118033;27;20520;-73
2021/12/31 00:26:55;;;;;;;2.30;1.30;;;;;;;;;;5117807;28;20541;-72
2021/12/31 00:29:23;;;;;;;1.13;0.70;;;;;;;;;;5118984;28;20466;-72
2021/12/31 00:31:51;;;;;;;2.80;1.43;;;;;;;;;;5119010;28;20467;-72
2021/12/31 00:34:19;;;;;;;3.53;1.20;;;;;;;;;;5118595;28;20466;-74
2021/12/31 00:36:47;;;;;;;3.60;1.40;;;;;;;;;;5118439;28;20523;-74
2021/12/31 00:39:20;;;;;;;3.07;2.20;;;;;;;;;;5118297;28;20501;-72
2021/12/31 00:41:49;;;;;;;3.20;1.47;;;;;;;;;;5118040;28;20459;-73
2021/12/31 00:44:17;;;;;;;3.90;2.00;;;;;;;;;;5118672;28;20457;-72
2021/12/31 00:46:47;;;;;;;2.33;1.80;;;;;;;;;;5117738;28;20467;-74
2021/12/31 00:49:17;;;;;;;6.97;2.53;;;;;;;;;;5118354;28;20453;-73
2021/12/31 00:51:54;;;;;;;2.27;1.50;;;;;;;;;;5116200;28;20473;-72
2021/12/31 00:54:22;;;;;;;4.00;1.70;;;;;;;;;;5117192;28;20443;-72
2021/12/31 00:57:01;;;;;;;4.07;2.67;;;;;;;;;;5118508;28;20455;-72
2021/12/31 00:59:29;;;;;;;2.73;1.90;;;;;;;;;;5117185;28;20569;-74
2021/12/31 01:02:13;;;;;;;7.20;3.23;;;;;;;;;;5117770;28;20459;-72
2021/12/31 01:04:40;;;;;;;2.87;2.23;;;;;;;;;;5116307;28;20462;-74
2021/12/31 01:07:10;;;;;;;3.60;3.20;;;;;;;;;;5100983;28;20851;-74
2021/12/31 01:09:38;;;;;;;7.60;3.20;;;;;;;;;;5116003;27;20446;-73
2021/12/31 01:12:10;;;;;;;5.20;3.97;;;;;;;;;;5118092;28;20471;-73
2021/12/31 01:14:41;;;;;;;6.20;3.80;;;;;;;;;;5117205;28;20458;-73
2021/12/31 01:17:12;;;;;;;8.50;4.90;;;;;;;;;;5117449;28;20446;-73
2021/12/31 01:19:46;;;;;;;7.00;4.00;;;;;;;;;;5117911;28;20832;-73
2021/12/31 01:22:15;;;;;;;3.80;2.50;;;;;;;;;;5117478;28;20485;-73
2021/12/31 01:24:42;;;;;;;5.77;4.43;;;;;;;;;;5118187;28;20743;-73
2021/12/31 01:27:12;;;;;;;3.17;2.70;;;;;;;;;;5102974;28;20911;-74
2021/12/31 01:29:43;;;;;;;9.73;4.37;;;;;;;;;;5098711;28;20460;-73
2021/12/31 01:32:11;;;;;;;5.30;4.00;;;;;;;;;;5117431;28;20455;-73
2021/12/31 01:34:40;;;;;;;6.07;3.53;;;;;;;;;;5117307;28;20871;-73
2021/12/31 01:37:08;;;;;;;3.23;2.80;;;;;;;;;;5117141;28;20884;-73
2021/12/31 01:39:37;;;;;;;8.33;3.63;;;;;;;;;;5117514;28;20975;-72
2021/12/31 01:42:08;;;;;;;8.10;3.93;;;;;;;;;;5117134;28;20462;-72
2021/12/31 01:44:43;;;;;;;4.73;3.37;;;;;;;;;;5118542;28;20553;-72
2021/12/31 01:47:14;;;;;;;11.53;4.30;;;;;;;;;;5117605;28;20981;-74
2021/12/31 01:49:53;;;;;;;5.97;2.93;;;;;;;;;;5117484;28;20470;-73
2021/12/31 01:52:22;;;;;;;5.63;2.70;;;;;;;;;;5130576;27;20445;-73
2021/12/31 01:54:50;;;;;;;4.40;2.87;;;;;;;;;;5117051;27;20458;-73
2021/12/31 01:57:17;;;;;;;9.80;3.23;;;;;;;;;;5129863;27;20469;-73
2021/12/31 01:59:47;;;;;;;6.47;2.90;;;;;;;;;;5141622;27;20493;-71
2021/12/31 02:02:15;;;;;;;6.83;3.60;;;;;;;;;;5138077;27;20446;-72
2021/12/31 02:04:43;;;;;;;4.90;2.50;;;;;;;;;;5120823;27;20498;-73
2021/12/31 02:07:11;;;;;;;4.33;2.10;;;;;;;;;;5105019;28;20464;-73
2021/12/31 02:09:45;;;;;;;7.30;2.80;;;;;;;;;;5120748;27;20461;-73
2021/12/31 02:12:13;;;;;;;3.37;2.90;;;;;;;;;;5139624;27;20897;-73
2021/12/31 02:14:41;;;;;;;6.70;4.03;;;;;;;;;;5126700;27;20511;-73
2021/12/31 02:17:10;;;;;;;7.33;3.40;;;;;;;;;;5120346;27;20446;-73
2021/12/31 02:19:39;;;;;;;5.90;3.00;;;;;;;;;;5120712;27;20487;-73
2021/12/31 02:22:09;;;;;;;8.17;3.90;;;;;;;;;;5120375;27;20785;-73
2021/12/31 02:24:37;;;;;;;4.80;2.60;;;;;;;;;;5120517;27;20539;-73
2021/12/31 02:27:05;;;;;;;11.30;3.47;;;;;;;;;;5120475;27;20861;-73
2021/12/31 02:29:33;;;;;;;9.43;4.50;;;;;;;;;;5120089;27;20462;-73
2021/12/31 02:32:00;;;;;;;5.50;3.10;;;;;;;;;;5121120;28;20693;-72
2021/12/31 02:34:28;;;;;;;6.10;3.60;;;;;;;;;;5102648;27;20466;-72
2021/12/31 02:36:56;;;;;;;9.97;3.63;;;;;;;;;;5101021;27;20568;-72
2021/12/31 02:39:25;;;;;;;8.93;3.67;;;;;;;;;;5104648;27;20475;-72
2021/12/31 02:41:53;;;;;;;4.47;2.97;;;;;;;;;;5119947;27;20929;-72
2021/12/31 02:44:21;;;;;;;5.47;2.80;;;;;;;;;;5119909;27;20899;-72
2021/12/31 02:46:49;;;;;;;6.73;3.00;;;;;;;;;;5119940;27;20962;-72
2021/12/31 02:49:19;;;;;;;5.40;4.23;;;;;;;;;;5119830;27;20799;-72
2021/12/31 02:51:47;;;;;;;6.70;2.67;;;;;;;;;;5119802;27;20473;-72
2021/12/31 02:54:15;;;;;;;6.43;3.23;;;;;;;;;;5119738;27;20459;-72
2021/12/31 02:56:44;;;;;;;6.37;3.97;;;;;;;;;;5119576;27;20462;-72
2021/12/31 02:59:12;;;;;;;4.63;4.13;;;;;;;;;;5118931;27;20497;-72
2021/12/31 03:01:41;;;;;;;13.00;3.20;;;;;;;;;;5100524;27;20945;-72
2021/12/31 03:04:09;;;;;;;4.80;4.10;;;;;;;;;;5099324;28;20462;-72
2021/12/31 03:06:37;;;;;;;5.97;2.87;;;;;;;;;;5100092;28;20455;-72
2021/12/31 03:09:05;;;;;;;6.37;3.17;;;;;;;;;;5099168;28;20740;-72
2021/12/31 03:11:33;;;;;;;10.13;3.90;;;;;;;;;;5099296;28;20455;-71
2021/12/31 03:14:02;;;;;;;6.90;2.60;;;;;;;;;;5112708;27;20467;-71
2021/12/31 03:16:30;;;;;;;6.70;3.43;;;;;;;;;;5119879;27;20450;-73
2021/12/31 03:18:58;;;;;;;5.00;3.07;;;;;;;;;;5119681;27;20479;-71
2021/12/31 03:21:25;;;;;;;4.50;3.50;;;;;;;;;;5119726;27;20783;-73
2021/12/31 03:23:55;;;;;;;5.17;2.80;;;;;;;;;;5119437;27;20470;-73
2021/12/31 03:26:23;;;;;;;4.77;2.00;;;;;;;;;;5119107;27;20462;-71
2021/12/31 03:28:52;;;;;;;6.40;3.27;;;;;;;;;;5119294;27;20451;-72
2021/12/31 03:31:21;;;;;;;5.67;3.60;;;;;;;;;;5120147;27;20587;-72
2021/12/31 03:33:49;;;;;;;3.60;2.77;;;;;;;;;;5120850;27;20720;-72
2021/12/31 03:36:17;;;;;;;4.73;2.53;;;;;;;;;;5119270;27;20461;-72
2021/12/31 03:38:44;;;;;;;5.37;3.27;;;;;;;;;;5120332;27;20501;-72
2021/12/31 03:41:12;;;;;;;7.80;3.10;;;;;;;;;;5119104;27;20451;-72
2021/12/31 03:43:40;;;;;;;5.17;2.50;;;;;;;;;;5118705;27;20704;-72
2021/12/31 03:46:07;;;;;;;5.20;3.27;;;;;;;;;;5118345;27;20549;-72
2021/12/31 03:48:36;;;;;;;2.87;1.40;;;;;;;;;;5118233;27;20557;-72
2021/12/31 03:51:04;;;;;;;7.13;3.27;;;;;;;;;;5118494;28;20519;-72
2021/12/31 03:53:32;;;;;;;6.70;2.70;;;;;;;;;;5118110;28;20462;-72
2021/12/31 03:56:00;;;;;;;10.17;3.07;;;;;;;;;;5097909;28;20985;-72
2021/12/31 03:58:27;;;;;;;3.33;2.33;;;;;;;;;;5098446;28;20471;-72
2021/12/31 04:00:55;;;;;;;4.63;2.50;;;;;;;;;;5098058;28;20447;-72
2021/12/31 04:03:23;;;;;;;8.33;2.87;;;;;;;;;;5103761;28;20634;-72
2021/12/31 04:05:53;;;;;;;6.07;2.67;;;;;;;;;;5118488;27;20455;-73
2021/12/31 04:08:20;;;;;;;7.10;2.53;;;;;;;;;;5118210;27;20458;-73
2021/12/31 04:10:51;;;;;;;7.63;3.60;;;;;;;;;;5119292;27;20858;-73
2021/12/31 04:13:19;;;;;;;4.90;2.90;;;;;;;;;;5118260;27;20874;-72
2021/12/31 04:15:46;;;;;;;10.77;3.30;;;;;;;;;;5119222;27;20451;-72
2021/12/31 04:18:17;;;;;;;7.83;4.17;;;;;;;;;;5118413;27;20451;-73
2021/12/31 04:20:45;;;;;;;8.33;3.07;;;;;;;;;;5118016;27;20478;-72
2021/12/31 04:23:28;;;;;;;5.90;2.77;;;;;;;;;;5118493;27;20467;-72
2021/12/31 04:25:56;;;;;;;8.43;3.23;;;;;;;;;;5118230;28;20485;-73
2021/12/31 04:28:26;;;;;;;6.80;3.13;;;;;;;;;;5117933;28;20530;-72
2021/12/31 04:30:57;;;;;;;4.60;2.43;;;;;;;;;;5118042;27;20749;-72
2021/12/31 04:33:25;;;;;;;7.27;3.03;;;;;;;;;;5118240;27;20495;-72
2021/12/31 04:35:53;;;;;;;3.80;2.37;;;;;;;;;;5117718;28;20482;-73
2021/12/31 04:38:22;;;;;;;5.33;2.80;;;;;;;;;;5118511;28;20867;-72
2021/12/31 04:40:50;;;;;;;5.37;2.33;;;;;;;;;;5117966;27;20478;-73
2021/12/31 04:43:23;;;;;;;5.13;2.40;;;;;;;;;;5118799;27;20456;-72
2021/12/31 04:45:50;;;;;;;7.20;2.30;;;;;;;;;;5118699;27;20511;-72
2021/12/31 04:48:18;;;;;;;7.07;2.63;;;;;;;;;;5113621;27;20532;-73
2021/12/31 04:50:46;;;;;;;4.60;1.93;;;;;;;;;;5118193;27;20470;-73
2021/12/31 04:53:14;;;;;;;6.20;3.17;;;;;;;;;;5117597;27;20451;-73
2021/12/31 04:55:44;;;;;;;5.00;2.90;;;;;;;;;;5115111;28;20451;-73
2021/12/31 04:58:12;;;;;;;10.37;3.10;;;;;;;;;;5116872;28;20485;-73
2021/12/31 05:00:40;;;;;;;5.07;2.53;;;;;;;;;;5118646;27;20486;-72
2021/12/31 05:03:08;;;;;;;7.80;3.80;;;;;;;;;;5118243;27;20814;-73
2021/12/31 05:05:36;;;;;;;3.93;2.27;;;;;;;;;;5119622;27;20750;-73
2021/12/31 05:08:04;;;;;;;5.03;3.10;;;;;;;;;;5117982;27;20461;-73
2021/12/31 05:10:32;;;;;;;7.23;3.23;;;;;;;;;;5117523;28;20545;-73
2021/12/31 05:13:03;;;;;;;4.17;2.60;;;;;;;;;;5117590;27;20516;-73
2021/12/31 05:15:34;;;;;;;4.63;3.00;;;;;;;;;;5118137;27;20458;-73
2021/12/31 05:18:02;;;;;;;5.60;2.23;;;;;;;;;;5111358;27;20456;-73
2021/12/31 05:20:32;;;;;;;8.17;3.20;;;;;;;;;;5096443;28;20499;-73
2021/12/31 05:23:01;;;;;;;10.83;4.97;;;;;;;;;;5096817;28;20461;-72
2021/12/31 05:25:28;;;;;;;4.83;2.63;;;;;;;;;;5096878;28;20455;-73
2021/12/31 05:27:56;;;;;;;6.47;3.47;;;;;;;;;;5099270;28;20531;-73
2021/12/31 05:30:26;;;;;;;4.50;2.60;;;;;;;;;;5121625;27;20450;-73
2021/12/31 05:32:54;;;;;;;10.37;3.70;;;;;;;;;;5121274;27;20488;-74
2021/12/31 05:35:22;;;;;;;4.87;2.87;;;;;;;;;;5121706;27;20890;-74
2021/12/31 05:37:50;;;;;;;8.47;3.50;;;;;;;;;;5120916;27;20454;-73
2021/12/31 05:40:18;;;;;;;10.07;4.27;;;;;;;;;;5121603;27;20517;-72
2021/12/31 05:42:45;;;;;;;7.40;4.33;;;;;;;;;;5121415;27;20837;-74
2021/12/31 05:45:13;;;;;;;13.97;4.70;;;;;;;;;;5122279;27;20490;-73
2021/12/31 05:47:43;;;;;;;13.57;3.90;;;;;;;;;;5120908;27;20945;-73
2021/12/31 05:50:19;;;;;;;5.47;4.17;;;;;;;;;;5120987;27;21118;-73
2021/12/31 05:52:47;;;;;;;7.60;4.37;;;;;;;;;;5121869;27;20464;-73
2021/12/31 05:55:14;;;;;;;5.90;4.37;;;;;;;;;;5121880;27;20827;-73
2021/12/31 05:57:42;;;;;;;8.37;5.40;;;;;;;;;;5121888;27;20459;-72
2021/12/31 06:00:13;;;;;;;5.57;4.70;;;;;;;;;;5120786;27;20568;-73
2021/12/31 06:02:43;;;;;;;7.90;5.10;;;;;;;;;;5120712;27;20867;-73
2021/12/31 06:05:13;;;;;;;8.47;5.67;;;;;;;;;;5121007;27;20879;-73
2021/12/31 06:07:40;;;;;;;10.23;5.50;;;;;;;;;;5120587;27;20481;-73
2021/12/31 06:10:08;;;;;;;6.83;4.80;;;;;;;;;;5120740;27;20819;-73
2021/12/31 06:12:37;;;;;;;6.90;5.10;;;;;;;;;;5120737;27;20455;-73
2021/12/31 06:15:08;;;;;;;5.90;5.30;;;;;;;;;;5119906;27;20540;-73
2021/12/31 06:17:39;;;;;;;6.40;5.33;;;;;;;;;;5120636;27;20459;-74
2021/12/31 06:20:07;;;;;;;6.10;5.27;;;;;;;;;;5119639;27;20914;-73
2021/12/31 06:22:36;;;;;;;7.90;5.30;;;;;;;;;;5120409;27;20481;-73
2021/12/31 06:25:04;;;;;;;6.00;5.03;;;;;;;;;;5120129;27;20597;-72
2021/12/31 06:27:32;;;;;;;9.10;5.70;;;;;;;;;;5119400;27;20443;-72
2021/12/31 06:30:00;;;;;;;9.00;5.20;;;;;;;;;;5119081;27;20486;-73
2021/12/31 06:32:27;;;;;;;9.37;4.63;;;;;;;;;;5118780;27;20469;-73
2021/12/31 06:34:56;;;;;;;8.70;5.20;;;;;;;;;;5119291;27;20749;-73
2021/12/31 06:37:23;;;;;;;5.97;4.43;;;;;;;;;;5119498;28;20826;-73
2021/12/31 06:39:53;;;;;;;10.27;5.70;;;;;;;;;;5118249;27;20531;-73
2021/12/31 06:42:21;;;;;;;5.43;4.93;;;;;;;;;;5120250;27;20469;-73
2021/12/31 06:44:52;;;;;;;6.80;4.23;;;;;;;;;;5119847;27;20528;-73
2021/12/31 06:47:19;;;;;;;4.73;4.23;;;;;;;;;;5119252;27;20519;-73
2021/12/31 06:49:47;;;;;;;5.70;5.10;;;;;;;;;;5119026;27;20905;-72
2021/12/31 06:52:15;;;;;;;5.50;3.97;;;;;;;;;;5120024;27;20473;-72
2021/12/31 06:54:42;;;;;;;7.67;3.87;;;;;;;;;;5118292;27;20461;-73
2021/12/31 06:57:11;;;;;;;6.90;4.57;;;;;;;;;;5118882;27;20459;-74
2021/12/31 06:59:39;;;;;;;5.20;4.70;;;;;;;;;;5118911;27;20561;-74
2021/12/31 07:02:07;;;;;;;6.10;4.87;;;;;;;;;;5118522;27;20466;-73
2021/12/31 07:04:34;;;;;;;11.17;5.23;;;;;;;;;;5118479;27;20455;-73
2021/12/31 07:07:02;;;;;;;7.00;4.70;;;;;;;;;;5119554;27;20462;-73
2021/12/31 07:09:30;;;;;;;4.40;3.90;;;;;;;;;;5118943;27;20718;-73
2021/12/31 07:11:57;;;;;;;6.63;4.60;;;;;;;;;;5119403;27;20549;-73
2021/12/31 07:14:26;;;;;;;7.93;3.80;;;;;;;;;;5118183;27;20451;-73
2021/12/31 07:16:54;;;;;;;6.20;4.37;;;;;;;;;;5120000;27;20862;-73
2021/12/31 07:19:22;;;;;;;4.40;3.20;;;;;;;;;;5119072;27;20454;-73
2021/12/31 07:21:49;;;;;;;9.53;4.00;;;;;;;;;;5118437;28;20749;-72
2021/12/31 07:24:19;;;;;;;5.70;3.47;;;;;;;;;;5119502;27;20443;-74
2021/12/31 07:26:46;;;;;;;8.97;3.60;;;;;;;;;;5118347;27;20743;-73
2021/12/31 07:29:14;;;;;;;5.63;3.70;;;;;;;;;;5118700;27;20455;-73
2021/12/31 07:31:43;;;;;;;6.17;3.40;;;;;;;;;;5118958;27;20527;-73
2021/12/31 07:34:11;;;;;;;3.50;2.50;;;;;;;;;;5117916;27;20450;-72
2021/12/31 07:36:39;;;;;;;4.13;3.27;;;;;;;;;;5119744;27;20458;-72
2021/12/31 07:39:08;;;;;;;5.70;3.40;;;;;;;;;;5119078;27;20503;-72
2021/12/31 07:41:36;;;;;;;4.60;3.87;;;;;;;;;;5118551;27;20486;-72
2021/12/31 07:44:06;;;;;;;4.67;2.90;;;;;;;;;;5118465;28;20478;-73
2021/12/31 07:46:33;;;;;;;5.07;3.80;;;;;;;;;;5118076;27;20459;-72
2021/12/31 07:49:10;;;;;;;9.13;4.07;;;;;;;;;;5118166;27;20821;-73
2021/12/31 07:51:38;;;;;;;5.13;3.20;;;;;;;;;;5118037;28;20549;-73
2021/12/31 07:54:06;;;;;;;4.80;3.53;;;;;;;;;;5118591;28;20523;-73
2021/12/31 07:56:34;;;;;;;4.40;3.23;;;;;;;;;;5119489;27;20476;-73
2021/12/31 07:59:02;;;;;;;5.83;4.23;;;;;;;;;;5118862;27;20466;-72
2021/12/31 08:01:34;;;;;;;4.57;3.67;;;;;;;;;;5117204;28;20547;-74
2021/12/31 08:04:03;;;;;;;6.90;2.10;;;;;;;;;;5118653;27;20490;-72
2021/12/31 08:06:31;;;;;;;4.20;3.13;;;;;;;;;;5117765;27;20467;-72
2021/12/31 08:08:59;;;;;;;7.30;3.87;;;;;;;;;;5117994;27;20455;-72
2021/12/31 08:11:29;;;;;;;5.70;3.53;;;;;;;;;;5100505;28;20467;-73
2021/12/31 08:13:57;;;;;;;6.33;3.00;;;;;;;;;;5097054;28;20895;-71
2021/12/31 08:16:25;;;;;;;5.77;3.23;;;;;;;;;;5102339;28;20463;-72
2021/12/31 08:18:52;;;;;;;4.70;3.30;;;;;;;;;;5097395;28;20512;-72
2021/12/31 08:21:22;;;;;;;4.13;3.00;;;;;;;;;;5097098;28;20509;-72
2021/12/31 08:23:53;;;;;;;7.20;3.80;;;;;;;;;;5113542;27;20517;-73
2021/12/31 08:26:20;;;;;;;4.53;3.93;;;;;;;;;;5116835;28;20569;-73
2021/12/31 08:28:48;;;;;;;7.43;4.50;;;;;;;;;;5116825;28;20738;-73
2021/12/31 08:31:16;;;;;;;5.27;3.60;;;;;;;;;;5117187;28;20463;-74
2021/12/31 08:33:43;;;;;;;3.00;2.23;;;;;;;;;;5116835;27;20864;-72
2021/12/31 08:36:11;;;;;;;3.87;3.57;;;;;;;;;;5116840;28;20459;-74
2021/12/31 08:38:40;;;;;;;5.67;4.33;;;;;;;;;;5117513;28;20454;-71
2021/12/31 08:41:08;;;;;;;6.67;3.03;;;;;;;;;;5116958;27;20483;-73
2021/12/31 08:43:35;;;;;;;3.37;2.80;;;;;;;;;;5117135;28;20461;-73
2021/12/31 08:46:03;;;;;;;2.13;1.70;;;;;;;;;;5117602;28;20463;-73
2021/12/31 08:48:31;;;;;;;5.73;3.67;;;;;;;;;;5116674;28;20546;-73
2021/12/31 08:50:59;;;;;;;6.50;2.03;;;;;;;;;;5117611;28;20531;-73
2021/12/31 08:53:26;;;;;;;5.70;3.33;;;;;;;;;;5117156;28;20482;-73
2021/12/31 08:55:56;;;;;;;9.33;2.00;;;;;;;;;;5116237;28;20880;-73
2021/12/31 08:58:23;;;;;;;6.20;2.43;;;;;;;;;;5117490;27;20533;-73
2021/12/31 09:00:54;;;;;;;3.80;1.80;;;;;;;;;;5116191;27;20493;-73
2021/12/31 09:03:21;;;;;;;3.90;2.63;;;;;;;;;;5117147;27;20446;-73
2021/12/31 09:05:49;;;;;;;5.27;1.70;;;;;;;;;;5121037;27;20966;-73
2021/12/31 09:08:19;;;;;;;3.30;2.47;;;;;;;;;;5121016;27;20473;-73
2021/12/31 09:10:47;;;;;;;6.97;2.30;;;;;;;;;;5121612;27;20510;-72
2021/12/31 09:13:16;;;;;;;9.90;4.17;;;;;;;;;;5120232;27;20459;-73
2021/12/31 09:15:44;;;;;;;7.20;4.40;;;;;;;;;;5120483;27;20506;-72
2021/12/31 09:18:12;;;;;;;6.13;4.40;;;;;;;;;;5120715;27;20516;-72
2021/12/31 09:20:40;;;;;;;3.23;1.80;;;;;;;;;;5116502;27;20488;-71
2021/12/31 09:23:07;;;;;;;3.60;2.00;;;;;;;;;;5120392;27;20803;-71
2021/12/31 09:25:35;;;;;;;3.30;2.10;;;;;;;;;;5110121;27;20467;-71
2021/12/31 09:28:03;;;;;;;3.20;1.63;;;;;;;;;;5115764;27;20519;-73
2021/12/31 09:30:33;;;;;;;5.07;2.20;;;;;;;;;;5122103;27;20462;-71
2021/12/31 09:33:01;;;;;;;3.43;1.97;;;;;;;;;;5098620;28;20502;-71
2021/12/31 09:35:29;;;;;;;3.53;2.23;;;;;;;;;;5114365;27;20534;-70
2021/12/31 09:37:57;;;;;;;3.20;1.50;;;;;;;;;;5121432;27;20521;-73
2021/12/31 09:40:25;;;;;;;3.20;1.90;;;;;;;;;;5129496;27;20516;-72
2021/12/31 09:42:53;;;;;;;2.63;2.23;;;;;;;;;;5136765;27;20447;-73
2021/12/31 09:45:34;;;;;;;2.23;1.83;;;;;;;;;;5119785;27;20454;-73
2021/12/31 09:48:04;;;;;;;5.33;2.50;;;;;;;;;;5131484;27;20450;-72
2021/12/31 09:50:31;;;;;;;4.50;2.07;;;;;;;;;;5117674;27;20529;-73
2021/12/31 09:52:59;;;;;;;5.03;2.60;;;;;;;;;;5119965;27;20446;-72
2021/12/31 09:55:38;;;;;;;6.63;2.87;;;;;;;;;;5129209;27;20457;-73
2021/12/31 09:58:07;;;;;;;7.47;3.03;;;;;;;;;;5119024;27;20459;-73
2021/12/31 10:00:41;;;;;;;6.93;2.97;;;;;;;;;;5118792;27;20543;-73
2021/12/31 10:03:19;;;;;;;4.60;2.73;;;;;;;;;;5098468;28;20455;-73
2021/12/31 10:05:48;;;;;;;3.43;2.40;;;;;;;;;;5116816;27;20458;-73
2021/12/31 10:08:17;;;;;;;2.40;1.90;;;;;;;;;;5121585;27;20455;-73
2021/12/31 10:10:45;;;;;;;5.20;3.50;;;;;;;;;;5128959;27;20492;-71
2021/12/31 10:13:12;;;;;;;5.73;3.37;;;;;;;;;;5119466;27;20478;-72
2021/12/31 10:15:42;;;;;;;2.93;2.07;;;;;;;;;;5116269;27;20465;-72
2021/12/31 10:18:16;;;;;;;3.50;2.03;;;;;;;;;;5118866;27;20474;-73
2021/12/31 10:20:53;;;;;;;4.20;2.53;;;;;;;;;;5120525;27;20577;-73
2021/12/31 10:23:23;;;;;;;2.13;1.63;;;;;;;;;;5117862;27;20902;-72
2021/12/31 10:25:51;;;;;;;3.77;3.00;;;;;;;;;;5119705;27;20895;-71
2021/12/31 10:28:23;;;;;;;3.90;2.60;;;;;;;;;;5107667;27;20470;-72
2021/12/31 10:30:51;;;;;;;6.33;3.90;;;;;;;;;;5123990;27;20458;-73
2021/12/31 10:33:20;;;;;;;7.83;5.10;;;;;;;;;;5109645;27;20478;-73
2021/12/31 10:35:58;;;;;;;3.20;2.50;;;;;;;;;;5099113;28;20928;-73
2021/12/31 10:38:36;;;;;;;4.80;2.77;;;;;;;;;;5102783;27;20459;-72
2021/12/31 10:41:05;;;;;;;7.70;3.50;;;;;;;;;;5119451;27;20469;-71
2021/12/31 10:43:33;;;;;;;10.10;6.23;;;;;;;;;;5106882;27;20473;-72
2021/12/31 10:46:07;;;;;;;9.03;4.27;;;;;;;;;;5131780;27;20458;-72
2021/12/31 10:48:40;;;;;;;4.63;3.00;;;;;;;;;;5121667;27;20449;-71
2021/12/31 10:51:09;;;;;;;5.60;3.27;;;;;;;;;;5130578;27;20495;-71
2021/12/31 10:53:37;;;;;;;9.60;3.90;;;;;;;;;;5106763;28;20466;-71
2021/12/31 10:56:11;;;;;;;7.90;2.50;;;;;;;;;;5117300;27;20520;-71
2021/12/31 10:58:39;;;;;;;5.40;2.73;;;;;;;;;;5107120;27;20451;-72
2021/12/31 11:01:12;;;;;;;3.23;2.20;;;;;;;;;;5117176;27;20489;-71
2021/12/31 11:03:43;;;;;;;4.57;3.30;;;;;;;;;;5114902;27;20514;-74
2021/12/31 11:06:17;;;;;;;2.70;2.17;;;;;;;;;;5117457;27;20466;-73
2021/12/31 11:08:51;;;;;;;2.90;2.33;;;;;;;;;;5114867;28;20468;-72
2021/12/31 11:14:03;;;;;;;3.10;2.70;;;;;;;;;;5102823;28;20520;-72
2021/12/31 11:16:32;;;;;;;4.57;3.47;;;;;;;;;;5103572;28;20454;-73
2021/12/31 11:19:00;;;;;;;5.10;3.37;;;;;;;;;;5117031;28;20453;-72
2021/12/31 11:21:29;;;;;;;3.90;2.83;;;;;;;;;;5117129;27;20552;-73
2021/12/31 11:23:58;;;;;;;4.77;2.60;;;;;;;;;;5116888;27;20478;-72
2021/12/31 11:26:30;;;;;;;4.17;2.23;;;;;;;;;;5113560;28;20554;-72
2021/12/31 11:29:19;;;;;;;6.87;2.10;;;;;;;;;;5111597;27;20549;-72
2021/12/31 11:31:47;;;;;;;5.17;2.90;;;;;;;;;;5105128;28;20467;-73
2021/12/31 11:34:27;;;;;;;3.53;2.03;;;;;;;;;;5112473;27;20465;-71
2021/12/31 11:36:57;;;;;;;7.63;3.07;;;;;;;;;;5106157;28;20475;-73
2021/12/31 11:39:26;;;;;;;5.57;3.67;;;;;;;;;;5096264;28;20459;-73
2021/12/31 11:41:54;;;;;;;3.57;2.50;;;;;;;;;;5098318;28;20535;-73
2021/12/31 11:44:26;;;;;;;2.87;2.30;;;;;;;;;;5112069;27;21081;-73
2021/12/31 11:47:11;;;;;;;4.00;2.87;;;;;;;;;;5117199;28;20458;-73
2021/12/31 11:49:42;;;;;;;4.43;2.43;;;;;;;;;;5112060;27;20456;-73
2021/12/31 11:52:20;;;;;;;3.00;2.70;;;;;;;;;;5112225;27;20482;-74
2021/12/31 11:55:25;;;;;;;3.27;2.80;;;;;;;;;;5108790;28;20450;-73
2021/12/31 11:57:55;;;;;;;4.23;2.67;;;;;;;;;;5115511;27;20927;-72
2021/12/31 12:00:26;;;;;;;5.80;2.57;;;;;;;;;;5116765;27;20458;-72
2021/12/31 12:03:01;;;;;;;3.73;2.10;;;;;;;;;;5114343;27;20945;-72
2021/12/31 12:05:43;;;;;;;2.40;1.73;;;;;;;;;;5115018;27;20520;-74
2021/12/31 12:11:02;;;;;;;6.37;4.60;;;;;;;;;;5134529;27;20367;-73
2021/12/31 12:13:29;;;;;;;6.43;3.60;;;;;;;;;;5112544;27;20459;-73
2021/12/31 12:16:01;;;;;;;5.10;2.77;;;;;;;;;;5112463;27;20433;-73
2021/12/31 12:18:46;;;;;;;4.30;2.50;;;;;;;;;;5108553;28;20451;-73
2021/12/31 12:21:33;;;;;;;6.83;3.43;;;;;;;;;;5111640;28;20465;-73
2021/12/31 12:24:10;;;;;;;4.03;2.03;;;;;;;;;;5113209;27;20477;-73
2021/12/31 12:26:46;;;;;;;4.40;1.67;;;;;;;;;;5107607;28;20525;-74
2021/12/31 12:29:25;;;;;;;4.20;2.90;;;;;;;;;;5109891;28;20574;-73
2021/12/31 12:32:07;;;;;;;2.60;2.10;;;;;;;;;;5111312;27;20450;-73
2021/12/31 12:34:36;;;;;;;4.47;3.23;;;;;;;;;;5092504;28;20456;-74
2021/12/31 12:37:13;;;;;;;4.77;3.40;;;;;;;;;;5103956;28;20505;-75
2021/12/31 12:40:00;;;;;;;7.20;4.37;;;;;;;;;;5098298;27;20516;-74
2021/12/31 12:42:53;;;;;;;6.47;4.40;;;;;;;;;;5109289;28;20719;-74
2021/12/31 12:45:27;;;;;;;5.23;1.83;;;;;;;;;;5109927;27;20458;-73
2021/12/31 12:48:00;;;;;;;4.63;2.67;;;;;;;;;;5099766;27;20452;-73
2021/12/31 12:50:30;;;;;;;3.77;2.17;;;;;;;;;;5104397;28;20584;-73
2021/12/31 12:52:57;;;;;;;3.50;2.53;;;;;;;;;;5098502;28;20545;-72
2021/12/31 12:55:24;;;;;;;4.17;2.63;;;;;;;;;;5110913;28;20451;-72
2021/12/31 12:57:53;;;;;;;3.17;2.30;;;;;;;;;;5105055;27;20460;-72
2021/12/31 13:00:31;;;;;;;4.00;2.17;;;;;;;;;;5093761;28;20452;-72
2021/12/31 13:03:04;;;;;;;3.47;2.80;;;;;;;;;;5102468;27;20879;-73
2021/12/31 13:05:31;;;;;;;3.53;2.60;;;;;;;;;;5091849;28;20440;-72
2021/12/31 13:07:59;;;;;;;5.20;3.50;;;;;;;;;;5103926;28;20452;-73
2021/12/31 13:10:28;;;;;;;3.67;2.57;;;;;;;;;;5110957;27;20781;-73
2021/12/31 13:12:57;;;;;;;4.23;3.30;;;;;;;;;;5111894;27;20811;-72
2021/12/31 13:15:26;;;;;;;5.33;3.60;;;;;;;;;;5109949;27;20971;-72
2021/12/31 13:18:09;;;;;;;6.23;4.50;;;;;;;;;;5109885;27;20465;-72
2021/12/31 13:20:37;;;;;;;4.23;3.00;;;;;;;;;;5101368;28;20479;-72
2021/12/31 13:23:06;;;;;;;4.10;3.00;;;;;;;;;;5098830;28;20496;-72
2021/12/31 13:25:38;;;;;;;6.00;3.27;;;;;;;;;;5097858;28;20447;-71
2021/12/31 13:28:13;;;;;;;2.70;2.00;;;;;;;;;;5097671;28;20859;-71
2021/12/31 13:30:50;;;;;;;7.57;3.43;;;;;;;;;;5077366;28;21131;-72
2021/12/31 13:33:25;;;;;;;4.20;2.10;;;;;;;;;;5085497;28;20482;-72
2021/12/31 13:36:07;;;;;;;4.50;2.50;;;;;;;;;;5094904;28;20458;-72
2021/12/31 13:38:58;;;;;;;4.13;2.00;;;;;;;;;;5068581;28;20760;-73
2021/12/31 13:41:28;;;;;;;5.80;2.83;;;;;;;;;;5095483;28;20447;-72
2021/12/31 13:43:57;;;;;;;4.60;1.80;;;;;;;;;;5095126;28;20463;-72
2021/12/31 13:46:28;;;;;;;4.30;3.10;;;;;;;;;;5097240;28;20456;-72
2021/12/31 13:49:01;;;;;;;3.50;2.77;;;;;;;;;;5097837;28;20459;-72
2021/12/31 13:51:35;;;;;;;4.33;2.80;;;;;;;;;;5097263;28;20536;-73
2021/12/31 13:54:42;;;;;;;5.67;2.33;;;;;;;;;;5092070;28;20463;-72
2021/12/31 13:57:18;;;;;;;3.97;1.97;;;;;;;;;;5090244;28;20436;-72
2021/12/31 13:59:46;;;;;;;3.87;2.93;;;;;;;;;;5096458;28;20490;-72
2021/12/31 14:02:15;;;;;;;4.67;1.40;;;;;;;;;;5097061;28;20726;-72
2021/12/31 14:04:57;;;;;;;2.97;2.00;;;;;;;;;;5098046;28;20469;-72
2021/12/31 14:07:32;;;;;;;3.47;2.53;;;;;;;;;;5072077;28;20463;-72
2021/12/31 14:10:00;;;;;;;3.57;2.60;;;;;;;;;;5095830;28;20490;-72
2021/12/31 14:12:27;;;;;;;6.37;3.63;;;;;;;;;;5097725;28;20447;-72
2021/12/31 14:14:55;;;;;;;7.60;2.60;;;;;;;;;;5097775;28;21241;-72
2021/12/31 14:17:22;;;;;;;6.50;2.80;;;;;;;;;;5097019;28;20455;-72
2021/12/31 14:19:48;;;;;;;7.90;4.00;;;;;;;;;;5097013;28;20451;-72
2021/12/31 14:22:16;;;;;;;5.47;3.30;;;;;;;;;;5088971;28;20455;-72
2021/12/31 14:24:43;;;;;;;6.37;2.63;;;;;;;;;;5077764;28;20895;-72
2021/12/31 14:27:10;;;;;;;7.30;2.50;;;;;;;;;;5081205;28;20440;-72
2021/12/31 14:29:39;;;;;;;3.40;2.20;;;;;;;;;;5097121;28;20486;-73
2021/12/31 14:32:08;;;;;;;5.20;3.00;;;;;;;;;;5085820;28;20488;-73
2021/12/31 14:34:35;;;;;;;11.90;4.20;;;;;;;;;;5096314;28;20448;-71
2021/12/31 14:37:04;;;;;;;3.90;3.00;;;;;;;;;;5096538;28;20740;-73
2021/12/31 14:39:34;;;;;;;4.57;2.97;;;;;;;;;;5096832;28;20783;-73
2021/12/31 14:42:01;;;;;;;5.03;2.90;;;;;;;;;;5096485;28;20476;-73
2021/12/31 14:44:28;;;;;;;6.10;3.97;;;;;;;;;;5096342;28;20494;-73
2021/12/31 14:46:55;;;;;;;6.50;4.10;;;;;;;;;;5097389;28;20876;-73
2021/12/31 14:49:23;;;;;;;10.03;7.13;;;;;;;;;;5097899;28;21111;-73
2021/12/31 14:51:50;;;;;;;5.00;3.23;;;;;;;;;;5098030;28;20467;-74
2021/12/31 14:54:17;;;;;;;7.90;3.90;;;;;;;;;;5096894;28;20990;-73
2021/12/31 14:56:46;;;;;;;4.37;3.37;;;;;;;;;;5097501;28;20458;-73
2021/12/31 14:59:14;;;;;;;5.07;3.73;;;;;;;;;;5096166;28;20529;-72
2021/12/31 15:01:41;;;;;;;6.73;3.93;;;;;;;;;;5097177;28;20558;-72
2021/12/31 15:04:08;;;;;;;5.50;3.83;;;;;;;;;;5093360;28;20451;-72
2021/12/31 15:06:36;;;;;;;6.13;3.70;;;;;;;;;;5097647;28;20856;-72